Time;durP1;ratioP1;P1;durP2;ratioP2;P2;SDS_P1;SDS_P2;PMS_P1;PMS_P2;Temp;Humidity;BMP_temperature;BMP_pressure;BME280_temperature;BME280_humidity;BME280_pressure;Samples;Min_cycle;Max_cycle;Signal;HPM_P1;HPM_P2
2024/01/04 00:02:00;;;;;;;4.47;2.30;;;8.60;99.90;;;8.74;85.19;98351.59;5014328;28;20065;-84
2024/01/04 00:04:27;;;;;;;7.63;2.22;;;8.60;99.90;;;8.73;85.16;98356.06;5012267;28;20073;-84
2024/01/04 00:06:54;;;;;;;5.20;2.10;;;8.70;99.90;;;8.78;84.95;98365.94;5013807;28;20050;-84
2024/01/04 00:09:22;;;;;;;9.38;2.40;;;8.70;99.90;;;8.79;85.08;98366.78;5012379;28;20086;-84
2024/01/04 00:11:51;;;;;;;7.95;2.58;;;8.70;99.90;;;8.74;85.20;98367.53;5013998;28;20065;-84
2024/01/04 00:14:18;;;;;;;6.63;2.35;;;8.70;99.90;;;8.79;85.41;98364.13;5013601;28;20050;-84
2024/01/04 00:16:47;;;;;;;6.82;2.83;;;8.70;99.90;;;8.72;85.55;98358.97;5014032;28;20050;-84
2024/01/04 00:19:14;;;;;;;8.60;2.70;;;8.70;99.90;;;8.69;86.16;98370.94;5014176;28;20042;-84
2024/01/04 00:21:42;;;;;;;9.15;2.97;;;8.70;99.90;;;8.71;86.34;98363.50;5013572;28;20137;-84
2024/01/04 00:24:09;;;;;;;8.00;3.72;;;8.70;99.90;;;8.72;86.54;98383.69;5011351;28;20125;-84
2024/01/04 00:26:36;;;;;;;11.38;3.75;;;8.70;99.90;;;8.72;86.60;98378.38;5013524;28;20497;-84
2024/01/04 00:29:04;;;;;;;8.70;3.13;;;8.70;99.90;;;8.63;86.92;98376.44;5013622;28;20052;-84
2024/01/04 00:31:31;;;;;;;10.20;3.70;;;9.00;99.90;;;8.69;87.03;98391.41;5013680;28;20112;-84
2024/01/04 00:34:00;;;;;;;10.02;3.45;;;8.70;99.90;;;8.65;87.21;98388.44;5016151;28;20493;-84
2024/01/04 00:36:27;;;;;;;6.43;3.35;;;8.70;99.90;;;8.68;87.56;98390.56;5015561;28;20053;-84
2024/01/04 00:38:54;;;;;;;8.00;3.55;;;8.70;99.90;;;8.70;87.58;98393.78;5016774;28;20100;-84
2024/01/04 00:41:22;;;;;;;7.30;4.03;;;8.70;99.90;;;8.62;87.88;98404.06;5017108;28;20038;-84
2024/01/04 00:43:49;;;;;;;9.40;4.90;;;8.70;99.90;;;8.67;88.13;98401.44;5016740;28;20052;-84
2024/01/04 00:46:17;;;;;;;10.38;4.82;;;8.70;99.90;;;8.70;87.80;98400.97;5016709;28;20069;-84
2024/01/04 00:48:44;;;;;;;15.48;5.38;;;8.70;99.90;;;8.65;88.03;98407.03;5016214;28;20088;-84
2024/01/04 00:51:14;;;;;;;14.57;5.78;;;8.70;99.90;;;8.61;88.36;98403.25;5005060;28;20038;-84
2024/01/04 00:53:41;;;;;;;10.38;5.90;;;8.70;99.90;;;8.58;88.57;98411.72;5007834;28;20104;-84
2024/01/04 00:56:09;;;;;;;13.63;6.20;;;8.70;99.90;;;8.65;88.56;98412.34;5017345;28;20093;-84
2024/01/04 00:58:36;;;;;;;13.85;6.43;;;8.70;99.90;;;8.63;89.00;98422.41;5015657;28;20584;-84
2024/01/04 01:01:04;;;;;;;11.80;6.35;;;8.70;99.90;;;8.70;88.88;98416.91;5016605;28;20121;-84
2024/01/04 01:03:32;;;;;;;10.35;6.20;;;8.70;99.90;;;8.72;88.63;98431.53;5016803;28;20100;-84
2024/01/04 01:05:59;;;;;;;16.48;6.20;;;8.70;99.90;;;8.74;88.45;98439.28;5016235;28;20046;-84
2024/01/04 01:08:28;;;;;;;10.68;5.57;;;8.80;99.90;;;8.77;88.26;98439.56;5010539;28;20047;-85
2024/01/04 01:10:55;;;;;;;12.80;5.85;;;8.70;99.90;;;8.71;88.28;98445.88;4996666;28;20034;-84
2024/01/04 01:13:22;;;;;;;12.18;5.60;;;8.80;99.90;;;8.60;88.70;98449.47;4996493;28;20042;-84
2024/01/04 01:15:50;;;;;;;15.90;5.00;;;8.70;99.90;;;8.62;89.22;98452.69;4996572;28;20510;-84
2024/01/04 01:18:17;;;;;;;13.43;5.80;;;8.70;99.90;;;8.62;89.45;98450.03;4996347;28;20112;-84
2024/01/04 01:20:45;;;;;;;13.65;4.95;;;8.70;99.90;;;8.70;89.46;98462.88;4996810;28;20486;-84
2024/01/04 01:23:13;;;;;;;13.48;4.78;;;8.70;99.90;;;8.75;89.12;98468.25;4996502;28;20050;-84
2024/01/04 01:25:42;;;;;;;10.05;4.18;;;8.70;99.90;;;8.74;88.73;98474.63;4997501;28;20050;-84
2024/01/04 01:28:09;;;;;;;8.93;3.70;;;8.70;99.90;;;8.76;88.64;98496.44;4997240;28;20501;-85
2024/01/04 01:30:36;;;;;;;7.55;3.15;;;8.80;99.90;;;8.71;88.22;98498.22;4997359;28;20038;-85
2024/01/04 01:33:04;;;;;;;6.53;2.30;;;8.70;99.90;;;8.72;87.70;98500.63;5013811;28;20084;-84
2024/01/04 01:35:31;;;;;;;7.00;1.70;;;8.70;99.90;;;8.70;87.47;98492.13;5016714;28;20449;-85
2024/01/04 01:37:59;;;;;;;4.68;1.83;;;8.70;99.90;;;8.71;87.00;98507.00;5015731;28;20096;-85
2024/01/04 01:40:26;;;;;;;3.75;1.08;;;8.70;99.90;;;8.64;86.80;98511.72;5016521;28;20038;-85
2024/01/04 01:42:55;;;;;;;3.63;1.15;;;8.70;99.90;;;8.70;86.60;98517.88;5004885;28;20130;-84
2024/01/04 01:45:23;;;;;;;4.15;1.00;;;8.70;99.90;;;8.68;86.41;98514.66;5014634;28;20038;-85
2024/01/04 01:47:54;;;;;;;2.95;1.20;;;8.70;99.90;;;8.60;86.56;98528.41;5016451;28;20516;-84
2024/01/04 01:50:24;;;;;;;2.65;1.00;;;8.60;99.90;;;8.60;86.89;98534.50;5016969;28;20054;-85
2024/01/04 01:52:52;;;;;;;4.23;1.20;;;8.60;99.90;;;8.68;86.75;98539.38;5016968;28;20034;-85
2024/01/04 01:55:23;;;;;;;5.20;1.38;;;8.70;99.90;;;8.67;86.58;98548.41;5015882;28;20053;-84
2024/01/04 01:57:51;;;;;;;3.83;1.40;;;8.70;99.90;;;8.64;86.77;98551.56;5014977;28;20116;-84
2024/01/04 02:00:21;;;;;;;4.78;1.88;;;8.60;99.90;;;8.61;87.06;98552.06;5015145;28;20263;-84
2024/01/04 02:02:50;;;;;;;4.88;2.10;;;8.60;99.90;;;8.51;87.16;98567.84;5016130;28;20038;-84
2024/01/04 02:05:19;;;;;;;5.88;2.30;;;8.60;99.90;;;8.48;87.80;98569.13;5016492;28;20464;-85
2024/01/04 02:07:47;;;;;;;5.28;2.30;;;8.60;99.90;;;8.55;87.77;98582.25;5016667;28;20038;-85
2024/01/04 02:10:14;;;;;;;5.53;2.10;;;8.60;99.90;;;8.58;88.15;98589.72;5016383;28;20045;-84
2024/01/04 02:12:42;;;;;;;5.28;2.30;;;8.60;99.90;;;8.60;88.32;98600.94;5016884;28;20048;-85
2024/01/04 02:15:10;;;;;;;5.57;2.30;;;8.60;99.90;;;8.45;88.21;98604.19;5012623;28;20096;-84
2024/01/04 02:17:40;;;;;;;6.38;2.80;;;8.60;99.90;;;8.52;88.60;98611.97;5014735;28;20046;-84
2024/01/04 02:20:08;;;;;;;5.85;2.95;;;8.60;99.90;;;8.50;88.78;98614.88;5016585;28;20042;-84
2024/01/04 02:22:36;;;;;;;9.00;2.90;;;8.60;99.90;;;8.47;88.78;98615.34;5014570;28;20042;-85
2024/01/04 02:25:06;;;;;;;7.90;2.78;;;8.60;99.90;;;8.50;88.81;98624.69;5015867;28;20073;-84
2024/01/04 02:27:34;;;;;;;6.38;3.10;;;8.60;99.90;;;8.53;88.62;98632.16;5016014;28;20041;-84
2024/01/04 02:30:01;;;;;;;7.03;2.88;;;8.60;99.90;;;8.57;88.52;98632.50;5015003;28;20070;-84
2024/01/04 02:32:28;;;;;;;9.98;3.30;;;8.60;99.90;;;8.59;88.47;98644.50;5016482;28;20046;-85
2024/01/04 02:34:56;;;;;;;6.65;3.50;;;8.60;99.90;;;8.54;88.00;98633.81;5016327;28;20050;-84
2024/01/04 02:37:23;;;;;;;8.38;3.60;;;8.60;99.90;;;8.64;88.31;98649.09;5015772;28;20483;-85
2024/01/04 02:39:51;;;;;;;7.70;3.75;;;8.60;99.90;;;8.62;87.90;98651.97;5015697;28;20137;-84
2024/01/04 02:42:20;;;;;;;8.38;3.20;;;8.60;99.90;;;8.64;87.70;98660.53;5016215;28;20441;-84
2024/01/04 02:44:47;;;;;;;7.28;3.10;;;8.60;99.90;;;8.65;87.77;98662.13;5013061;28;20046;-84
2024/01/04 02:47:15;;;;;;;7.18;3.55;;;8.70;99.90;;;8.73;87.56;98669.66;5015647;28;20052;-84
2024/01/04 02:49:42;;;;;;;7.97;3.13;;;8.70;99.90;;;8.75;86.87;98672.09;5014741;28;20042;-84
2024/01/04 02:52:11;;;;;;;6.82;3.25;;;8.70;99.90;;;8.72;86.85;98680.53;5016223;28;20041;-84
2024/01/04 02:54:39;;;;;;;6.82;3.45;;;8.70;99.90;;;8.67;87.23;98689.25;5015671;28;20065;-84
2024/01/04 02:57:07;;;;;;;9.48;3.50;;;8.70;99.90;;;8.68;86.97;98685.53;5014831;28;20045;-84
2024/01/04 02:59:35;;;;;;;9.23;3.33;;;8.70;99.90;;;8.67;87.06;98697.22;5016121;28;20581;-84
2024/01/04 03:02:03;;;;;;;5.80;3.17;;;8.70;99.90;;;8.67;86.77;98699.88;5015609;28;20096;-84
2024/01/04 03:04:30;;;;;;;7.43;3.30;;;8.70;99.90;;;8.70;87.09;98693.28;4996755;28;20042;-85
2024/01/04 03:06:57;;;;;;;9.10;3.72;;;8.70;99.90;;;8.72;86.95;98704.47;4996561;28;20102;-84
2024/01/04 03:09:25;;;;;;;7.63;3.03;;;8.70;99.90;;;8.69;86.79;98712.94;5011255;28;20128;-84
2024/01/04 03:11:52;;;;;;;6.55;3.10;;;8.70;99.90;;;8.72;87.01;98705.28;5014771;28;20100;-84
2024/01/04 03:14:19;;;;;;;6.68;3.00;;;8.70;99.90;;;8.79;87.09;98706.97;5015956;28;20116;-84
2024/01/04 03:16:48;;;;;;;11.40;3.30;;;8.70;99.90;;;8.81;86.47;98712.84;5015651;28;20046;-84
2024/01/04 03:19:15;;;;;;;7.55;3.20;;;8.70;99.90;;;8.85;86.18;98706.00;5015474;28;20468;-84
2024/01/04 03:21:43;;;;;;;8.63;2.90;;;8.70;99.90;;;8.83;85.93;98706.22;5010670;28;20103;-85
2024/01/04 03:24:10;;;;;;;9.65;3.60;;;9.10;99.90;;;8.83;85.62;98706.22;5015406;28;20042;-84
2024/01/04 03:26:37;;;;;;;6.20;2.72;;;8.70;99.90;;;8.86;85.11;98712.91;5015456;28;20121;-85
2024/01/04 03:29:05;;;;;;;5.68;2.30;;;8.70;99.90;;;8.85;84.80;98713.97;5016108;28;20073;-84
2024/01/04 03:31:33;;;;;;;9.57;2.70;;;8.70;99.90;;;8.87;84.52;98719.84;5015431;28;20476;-85
2024/01/04 03:34:01;;;;;;;10.30;2.53;;;8.70;99.90;;;8.90;84.26;98725.47;5015362;28;20046;-85
2024/01/04 03:36:29;;;;;;;8.02;2.58;;;8.80;99.90;;;8.88;83.96;98740.88;5009062;28;20060;-84
2024/01/04 03:38:56;;;;;;;6.53;1.88;;;8.70;99.90;;;8.82;83.92;98749.00;4996123;28;20039;-84
2024/01/04 03:41:24;;;;;;;7.88;2.10;;;8.70;99.90;;;8.71;83.64;98750.69;5001936;28;20477;-84
2024/01/04 03:43:51;;;;;;;7.50;1.80;;;8.70;99.90;;;8.71;84.17;98761.34;5015156;28;20073;-84
2024/01/04 03:46:18;;;;;;;7.50;1.90;;;8.60;99.90;;;8.63;83.96;98749.22;5015305;28;20390;-85
2024/01/04 03:48:46;;;;;;;6.40;1.95;;;8.60;99.90;;;8.66;84.19;98753.28;5014797;28;20073;-85
2024/01/04 03:51:14;;;;;;;6.68;1.80;;;8.60;99.90;;;8.68;84.35;98764.47;5014786;28;20095;-85
2024/01/04 03:53:42;;;;;;;4.85;1.70;;;8.60;99.90;;;8.69;84.29;98766.91;5012982;28;20470;-84
2024/01/04 03:56:09;;;;;;;6.20;1.70;;;8.60;99.90;;;8.67;84.05;98782.25;5010683;28;20045;-84
2024/01/04 03:58:36;;;;;;;7.45;2.20;;;8.60;99.90;;;8.69;84.12;98788.16;5015027;28;20516;-84
2024/01/04 04:01:04;;;;;;;6.68;1.60;;;8.60;99.90;;;8.69;84.38;98788.16;5015143;28;20414;-84
2024/01/04 04:03:31;;;;;;;4.93;1.80;;;8.60;99.90;;;8.73;84.16;98793.78;5014608;28;20041;-85
2024/01/04 04:06:04;;;;;;;5.13;1.55;;;8.60;99.90;;;8.69;83.93;98793.47;5014707;28;20076;-84
2024/01/04 04:08:33;;;;;;;8.90;2.08;;;8.60;99.90;;;8.65;83.75;98781.72;5013709;28;20092;-84
2024/01/04 04:11:00;;;;;;;5.00;2.20;;;8.50;99.90;;;8.61;84.13;98793.84;5016633;28;20092;-85
2024/01/04 04:13:28;;;;;;;5.78;2.30;;;8.50;99.90;;;8.51;83.88;98796.34;5018151;28;20050;-85
2024/01/04 04:15:55;;;;;;;9.63;2.40;;;8.50;99.90;;;8.52;83.79;98787.31;5018154;28;20079;-84
2024/01/04 04:18:22;;;;;;;8.70;2.40;;;8.40;99.90;;;8.56;84.20;98804.41;5017034;28;20120;-84
2024/01/04 04:20:49;;;;;;;9.98;2.83;;;8.40;99.90;;;8.60;84.02;98797.56;5019039;28;20065;-85
2024/01/04 04:23:17;;;;;;;6.80;2.50;;;8.50;99.90;;;8.63;83.72;98805.03;5017862;28;20561;-85
2024/01/04 04:25:45;;;;;;;7.47;2.28;;;8.50;99.90;;;8.59;83.12;98805.75;5017458;28;20045;-84
2024/01/04 04:28:15;;;;;;;6.22;2.30;;;8.50;99.90;;;8.52;83.50;98817.34;5017059;28;20038;-84
2024/01/04 04:30:42;;;;;;;6.05;2.50;;;8.40;99.90;;;8.49;83.67;98819.66;5017940;28;20041;-85
2024/01/04 04:33:09;;;;;;;6.03;2.30;;;8.40;99.90;;;8.45;83.63;98816.69;5017801;28;20042;-84
2024/01/04 04:35:37;;;;;;;5.93;2.58;;;8.40;99.90;;;8.41;83.98;98822.72;5017207;28;20049;-84
2024/01/04 04:38:05;;;;;;;5.22;2.35;;;8.40;99.90;;;8.33;83.90;98825.72;5017340;28;20468;-84
2024/01/04 04:40:32;;;;;;;6.32;2.03;;;8.30;99.90;;;8.34;84.61;98832.63;5017226;28;20042;-84
2024/01/04 04:43:01;;;;;;;5.78;2.30;;;8.30;99.90;;;8.41;84.57;98836.00;5016436;28;20555;-84
2024/01/04 04:45:28;;;;;;;9.00;2.63;;;8.30;99.90;;;8.49;84.75;98846.22;5016747;28;20125;-84
2024/01/04 04:47:55;;;;;;;6.60;1.85;;;8.40;99.90;;;8.52;84.32;98835.94;5016688;28;20057;-84
2024/01/04 04:50:23;;;;;;;6.82;2.30;;;8.40;99.90;;;8.55;84.28;98845.31;5015247;28;20057;-84
2024/01/04 04:52:50;;;;;;;5.85;1.90;;;8.40;99.90;;;8.60;84.22;98848.06;5016843;28;20069;-84
2024/01/04 04:55:17;;;;;;;5.72;1.98;;;8.50;99.90;;;8.62;84.04;98840.63;5017244;28;20390;-84
2024/01/04 04:57:44;;;;;;;4.10;1.70;;;8.50;99.90;;;8.65;83.91;98850.81;5017101;28;20065;-84
2024/01/04 05:00:15;;;;;;;5.68;2.20;;;8.50;99.90;;;8.70;84.00;98852.75;5014842;28;20049;-84
2024/01/04 05:02:42;;;;;;;4.80;2.20;;;8.50;99.90;;;8.67;83.80;98854.00;5016931;28;20048;-84
2024/01/04 05:05:09;;;;;;;6.82;2.67;;;8.50;99.90;;;8.69;84.06;98851.13;5016719;28;20108;-85
2024/01/04 05:07:37;;;;;;;6.80;2.60;;;8.50;99.90;;;8.70;84.05;98848.22;5016729;28;20049;-85
2024/01/04 05:10:05;;;;;;;7.80;2.85;;;8.50;99.90;;;8.74;84.21;98845.91;5016696;28;20128;-84
2024/01/04 05:12:33;;;;;;;6.15;3.08;;;8.60;99.90;;;8.76;84.08;98849.13;5016398;28;20045;-84
2024/01/04 05:15:04;;;;;;;7.82;3.33;;;8.60;99.90;;;8.76;83.94;98857.91;5018982;28;20088;-85
2024/01/04 05:17:33;;;;;;;6.53;3.17;;;8.60;99.90;;;8.77;83.95;98853.38;5018750;28;20045;-85
2024/01/04 05:20:00;;;;;;;6.82;3.00;;;8.60;99.90;;;8.80;83.99;98878.69;5018085;28;20125;-84
2024/01/04 05:22:28;;;;;;;5.55;3.03;;;8.60;99.90;;;8.84;84.03;98874.53;5018598;28;20094;-85
2024/01/04 05:24:55;;;;;;;6.93;3.50;;;8.60;99.90;;;8.86;83.90;98880.41;5018669;28;20053;-84
2024/01/04 05:27:23;;;;;;;8.90;3.90;;;8.70;99.90;;;8.87;83.71;98889.97;5019740;28;20132;-84
2024/01/04 05:29:52;;;;;;;10.15;5.18;;;8.60;99.90;;;8.82;83.95;98898.66;5019474;28;20108;-85
2024/01/04 05:32:19;;;;;;;7.57;3.92;;;8.60;99.90;;;8.73;83.22;98889.44;5017610;28;20067;-84
2024/01/04 05:34:48;;;;;;;5.38;3.03;;;8.60;99.90;;;8.63;82.64;98911.34;5004699;28;20073;-85
2024/01/04 05:37:15;;;;;;;4.50;1.88;;;8.50;99.90;;;8.44;82.29;98907.25;5000435;28;20057;-85
2024/01/04 05:39:43;;;;;;;6.50;1.80;;;8.40;99.90;;;8.45;82.54;98924.81;5000768;28;20101;-84
2024/01/04 05:42:10;;;;;;;5.80;1.88;;;8.40;99.90;;;8.48;82.74;98913.69;5015254;28;20042;-84
2024/01/04 05:44:38;;;;;;;5.68;1.88;;;8.30;99.90;;;8.49;82.56;98912.66;4999989;28;20050;-85
2024/01/04 05:47:07;;;;;;;5.25;2.22;;;8.40;99.90;;;8.52;82.88;98918.31;5013217;28;20049;-85
2024/01/04 05:49:34;;;;;;;7.78;2.55;;;8.40;99.90;;;8.57;82.73;98916.78;4996884;28;20121;-85
2024/01/04 05:52:04;;;;;;;7.00;3.13;;;8.40;99.90;;;8.58;82.96;98916.56;5016092;28;20064;-85
2024/01/04 05:54:31;;;;;;;6.78;2.90;;;8.40;99.90;;;8.60;83.06;98935.75;5017172;28;20046;-85
2024/01/04 05:56:58;;;;;;;4.93;2.55;;;8.40;99.90;;;8.60;82.83;98941.06;5016502;28;20042;-85
2024/01/04 05:59:26;;;;;;;6.07;2.90;;;8.40;99.90;;;8.58;82.86;98939.66;5016311;28;20100;-85
2024/01/04 06:01:56;;;;;;;7.93;2.38;;;8.40;99.90;;;8.60;83.32;98938.41;5017841;28;20046;-84
2024/01/04 06:04:24;;;;;;;5.68;2.28;;;8.40;99.90;;;8.53;82.89;98951.00;5019837;28;20046;-85
2024/01/04 06:06:53;;;;;;;5.10;2.58;;;8.40;99.90;;;8.52;83.52;98947.53;5013641;28;20133;-85
2024/01/04 06:09:21;;;;;;;7.03;2.70;;;8.40;99.90;;;8.51;83.82;98953.09;4999987;28;20074;-85
2024/01/04 06:11:50;;;;;;;5.57;2.60;;;8.40;99.90;;;8.46;83.79;98961.75;5000781;28;20047;-85
2024/01/04 06:14:18;;;;;;;6.75;3.30;;;8.40;99.90;;;8.46;83.79;98958.31;4998347;28;20046;-85
2024/01/04 06:16:45;;;;;;;6.43;3.38;;;8.40;99.90;;;8.40;83.86;98965.38;4999581;28;20042;-85
2024/01/04 06:19:13;;;;;;;7.00;3.05;;;8.30;99.90;;;8.47;84.24;98967.88;4999918;28;20046;-85
2024/01/04 06:21:40;;;;;;;5.72;3.05;;;8.30;99.90;;;8.47;84.43;98970.53;4999293;28;20112;-85
2024/01/04 06:24:08;;;;;;;8.02;3.10;;;8.30;99.90;;;8.54;84.62;98973.06;4998434;28;20039;-85
2024/01/04 06:26:37;;;;;;;5.07;2.72;;;8.40;99.90;;;8.58;84.46;98977.66;5025640;23;20052;-88
2024/01/04 06:29:07;;;;;;;5.95;2.70;;;8.50;99.90;;;8.56;83.55;98979.75;5032983;28;20175;-89
2024/01/04 06:31:34;;;;;;;6.67;2.53;;;8.40;99.90;;;8.58;83.89;98979.53;5034059;28;20045;-89
2024/01/04 06:34:04;;;;;;;6.90;2.83;;;8.40;99.90;;;8.56;83.89;98982.41;5034111;28;20112;-89
2024/01/04 06:36:31;;;;;;;5.97;2.70;;;8.40;99.90;;;8.57;84.13;98992.00;5013152;28;20160;-89
2024/01/04 06:38:59;;;;;;;6.30;2.78;;;8.40;99.90;;;8.62;84.14;98992.09;5012923;28;20395;-89
2024/01/04 06:41:29;;;;;;;6.15;2.50;;;8.50;99.90;;;8.67;84.04;98994.06;4996716;28;20576;-89
2024/01/04 06:44:01;;;;;;;6.05;2.75;;;8.50;99.90;;;8.71;84.21;98997.88;4997376;28;20140;-89
2024/01/04 06:46:29;;;;;;;6.05;2.80;;;8.50;99.90;;;8.72;83.86;98999.47;5014624;28;20073;-89
2024/01/04 06:48:56;;;;;;;7.22;2.85;;;8.50;99.90;;;8.76;84.02;98997.97;5013207;28;20053;-89
2024/01/04 06:51:26;;;;;;;5.95;3.08;;;8.60;99.90;;;8.78;83.65;99006.50;4981109;28;20056;-89
2024/01/04 06:53:53;;;;;;;7.53;3.50;;;8.60;99.90;;;8.75;83.67;98996.34;4979537;28;20073;-89
2024/01/04 06:56:21;;;;;;;10.45;5.93;;;8.60;99.90;;;8.67;83.88;99007.34;5012826;28;20054;-89
2024/01/04 06:58:50;;;;;;;10.95;5.82;;;8.60;99.90;;;8.70;84.32;99010.34;4980028;28;20104;-89
2024/01/04 07:01:21;;;;;;;14.00;7.55;;;8.50;99.90;;;8.69;84.92;99006.09;4980023;28;20505;-89
2024/01/04 07:03:51;;;;;;;17.25;8.63;;;8.50;99.90;;;8.69;85.33;99011.41;5013161;28;20560;-89
2024/01/04 07:06:22;;;;;;;15.77;9.18;;;8.60;99.90;;;8.68;85.28;99011.63;5012618;28;20101;-89
2024/01/04 07:08:53;;;;;;;13.43;8.40;;;8.60;99.90;;;8.69;85.50;99022.03;5014162;28;20074;-89
2024/01/04 07:11:20;;;;;;;13.83;9.27;;;8.60;99.90;;;8.69;85.62;99021.22;4996259;28;20042;-89
2024/01/04 07:13:48;;;;;;;13.68;8.93;;;8.60;99.90;;;8.64;85.79;99029.91;4994564;28;20046;-89
2024/01/04 07:16:16;;;;;;;15.13;9.07;;;8.60;99.90;;;8.64;86.22;99029.91;4994011;28;20137;-89
2024/01/04 07:18:46;;;;;;;15.15;8.63;;;8.60;99.90;;;8.61;86.55;99034.88;4961566;28;20101;-85
2024/01/04 07:21:14;;;;;;;17.37;8.90;;;8.60;99.90;;;8.64;86.49;99027.25;4966470;28;20081;-86
2024/01/04 07:23:42;;;;;;;15.85;8.25;;;8.60;99.90;;;8.54;86.69;99035.00;4999596;28;20046;-86
2024/01/04 07:26:10;;;;;;;14.48;9.05;;;8.60;99.90;;;8.51;87.29;99032.81;4992911;28;20105;-87
2024/01/04 07:28:38;;;;;;;11.65;7.40;;;8.50;99.90;;;8.52;87.42;99037.88;4995355;28;20054;-86
2024/01/04 07:31:05;;;;;;;11.80;7.90;;;8.60;99.90;;;8.53;87.40;99044.00;4977450;28;20506;-86
2024/01/04 07:33:33;;;;;;;12.02;7.53;;;8.60;99.90;;;8.52;87.61;99039.72;4993540;28;20046;-87
2024/01/04 07:36:06;;;;;;;10.57;7.20;;;8.50;99.90;;;8.57;87.61;99049.66;4995357;28;20524;-86
2024/01/04 07:38:35;;;;;;;13.80;7.70;;;8.50;99.90;;;8.59;87.02;99053.72;4993520;28;20090;-87
2024/01/04 07:41:04;;;;;;;13.43;7.10;;;8.60;99.90;;;8.57;86.81;99049.66;4994608;28;20525;-86
2024/01/04 07:43:36;;;;;;;12.07;6.80;;;8.60;99.90;;;8.62;86.95;99052.41;4997847;28;20501;-86
2024/01/04 07:46:11;;;;;;;16.73;7.80;;;8.60;99.90;;;8.65;86.66;99059.94;5002851;28;20116;-87
2024/01/04 07:48:39;;;;;;;14.07;6.63;;;8.60;99.90;;;8.66;86.89;99062.34;4985600;28;20073;-86
2024/01/04 07:51:08;;;;;;;10.35;6.70;;;8.60;99.90;;;8.68;86.84;99070.88;5002021;28;20054;-86
2024/01/04 07:53:36;;;;;;;11.65;6.05;;;8.60;99.90;;;8.71;86.62;99067.78;5001072;28;20043;-86
2024/01/04 07:56:03;;;;;;;10.13;6.15;;;8.60;99.90;;;8.76;86.52;99075.06;5001159;28;20050;-86
2024/01/04 07:58:31;;;;;;;11.75;6.18;;;8.70;99.90;;;8.69;86.30;99080.50;4999425;28;20105;-86
2024/01/04 08:01:09;;;;;;;11.02;6.10;;;8.70;99.90;;;8.65;86.71;99084.66;4951596;28;20494;-85
2024/01/04 08:06:38;;;;;;;13.30;6.32;;;8.70;99.90;;;8.68;86.63;99086.03;4999573;28;20070;-86
2024/01/04 08:09:14;;;;;;;8.70;5.93;;;8.70;99.90;;;8.72;86.73;99088.00;5003083;28;20525;-86
2024/01/04 08:11:43;;;;;;;12.65;6.57;;;8.60;99.90;;;8.76;86.51;99094.47;5001484;28;20073;-85
2024/01/04 08:14:10;;;;;;;10.60;6.00;;;8.70;99.90;;;8.79;86.55;99103.03;5002466;28;20049;-86
2024/01/04 08:16:38;;;;;;;13.10;6.35;;;8.70;99.90;;;8.72;86.32;99101.28;5017448;28;20049;-87
2024/01/04 08:19:06;;;;;;;10.98;6.13;;;8.70;99.90;;;8.71;86.58;99112.16;5019790;28;20056;-86
2024/01/04 08:21:40;;;;;;;11.32;5.85;;;8.70;99.90;;;8.66;86.54;99106.72;5020235;28;20433;-88
2024/01/04 08:24:09;;;;;;;10.60;5.63;;;8.60;99.90;;;8.69;87.09;99120.38;4989704;28;20046;-87
2024/01/04 08:26:43;;;;;;;13.45;6.20;;;8.60;99.90;;;8.69;86.79;99112.41;5018262;28;20049;-86
2024/01/04 08:29:13;;;;;;;10.00;5.85;;;8.70;99.90;;;8.68;87.07;99121.38;4999183;28;20041;-86
2024/01/04 08:31:41;;;;;;;11.13;6.07;;;8.60;99.90;;;8.70;87.12;99119.31;4998222;28;20466;-85
2024/01/04 08:34:10;;;;;;;11.10;5.85;;;8.70;99.90;;;8.70;87.11;99132.63;5002927;28;20054;-85
2024/01/04 08:36:38;;;;;;;9.55;5.75;;;8.70;99.90;;;8.70;86.98;99135.28;4999040;28;20520;-84
2024/01/04 08:39:06;;;;;;;8.77;5.30;;;8.60;99.90;;;8.65;87.34;99142.31;5024470;28;20046;-85
2024/01/04 08:41:35;;;;;;;11.32;5.03;;;8.60;99.90;;;8.68;87.31;99139.19;5029794;23;20045;-87
2024/01/04 08:44:03;;;;;;;10.95;5.50;;;8.70;99.90;;;8.67;87.37;99148.22;5038303;28;20497;-87
2024/01/04 08:46:32;;;;;;;10.75;5.20;;;8.70;99.90;;;8.69;87.43;99146.94;5037087;28;20528;-87
2024/01/04 08:49:00;;;;;;;12.32;4.90;;;8.70;99.90;;;8.74;87.26;99152.38;5024782;28;20053;-87
2024/01/04 08:51:28;;;;;;;11.77;4.95;;;8.70;99.90;;;8.80;87.05;99155.16;5022027;28;20038;-86
2024/01/04 08:53:55;;;;;;;8.52;4.47;;;8.70;99.90;;;8.70;86.72;99148.56;5037752;28;20524;-85
2024/01/04 08:56:23;;;;;;;9.70;5.10;;;8.70;99.90;;;8.65;86.78;99153.75;5017670;28;20497;-86
2024/01/04 08:58:52;;;;;;;7.13;3.95;;;8.70;99.90;;;8.58;86.94;99163.69;5036704;28;20049;-86
2024/01/04 09:01:20;;;;;;;10.18;5.35;;;8.60;99.90;;;8.54;87.08;99167.88;5035225;28;20067;-85
2024/01/04 09:03:50;;;;;;;10.90;5.00;;;8.60;99.90;;;8.58;87.52;99169.00;5037722;28;20076;-84
2024/01/04 09:06:18;;;;;;;9.63;4.97;;;8.60;99.90;;;8.45;87.53;99166.56;5036352;28;20042;-82
2024/01/04 09:08:45;;;;;;;11.02;5.47;;;8.60;99.90;;;8.40;87.83;99172.56;5030480;28;20050;-82
2024/01/04 09:11:13;;;;;;;11.35;5.38;;;8.50;99.90;;;8.42;88.48;99175.00;5032354;28;20046;-83
2024/01/04 09:13:40;;;;;;;10.73;5.75;;;8.50;99.90;;;8.52;88.47;99173.38;5044377;28;20046;-83
2024/01/04 09:16:11;;;;;;;14.15;6.63;;;8.60;99.90;;;8.51;88.35;99178.94;5050342;28;20052;-83
2024/01/04 09:18:38;;;;;;;16.00;6.40;;;8.50;99.90;;;8.56;88.29;99184.38;5022227;28;20049;-83
2024/01/04 09:21:06;;;;;;;13.32;6.90;;;8.60;99.90;;;8.60;88.35;99184.72;5049171;28;20117;-83
2024/01/04 09:23:33;;;;;;;16.73;7.78;;;8.60;99.90;;;8.63;88.13;99189.56;5032647;28;20109;-83
2024/01/04 09:26:08;;;;;;;13.45;7.50;;;8.70;99.90;;;8.67;88.10;99194.19;5045802;28;20058;-83
2024/01/04 09:28:36;;;;;;;19.48;9.13;;;8.70;99.90;;;8.66;88.00;99192.59;5026537;28;20054;-83
2024/01/04 09:31:04;;;;;;;16.17;9.63;;;8.70;99.90;;;8.58;88.48;99198.22;5052259;28;20045;-83
2024/01/04 09:33:34;;;;;;;14.77;8.98;;;8.60;99.90;;;8.63;88.81;99194.88;5034123;28;20045;-82
2024/01/04 09:36:03;;;;;;;18.38;10.18;;;8.70;99.90;;;8.61;88.75;99205.75;5028673;28;20046;-82
2024/01/04 09:38:32;;;;;;;19.77;10.52;;;8.70;99.90;;;8.68;88.80;99200.31;5029041;28;20081;-82
2024/01/04 09:41:17;;;;;;;19.55;12.15;;;8.70;99.90;;;8.73;88.71;99200.44;5040777;28;20049;-83
2024/01/04 09:43:45;;;;;;;19.70;12.48;;;8.70;99.90;;;8.77;88.84;99215.69;5049933;28;20401;-82
2024/01/04 09:46:19;;;;;;;20.67;12.20;;;8.80;99.90;;;8.82;88.59;99208.88;5050220;28;20068;-83
2024/01/04 09:48:57;;;;;;;18.50;12.13;;;8.80;99.90;;;8.83;88.40;99223.78;5034898;28;20425;-83
2024/01/04 09:51:26;;;;;;;21.40;12.48;;;8.80;99.90;;;8.85;88.55;99219.06;5040595;28;20046;-83
2024/01/04 09:53:54;;;;;;;20.15;11.55;;;8.80;99.90;;;8.83;88.53;99229.91;5030802;28;20072;-83
2024/01/04 09:56:23;;;;;;;19.30;11.25;;;8.80;99.90;;;8.85;88.75;99229.69;5052995;28;20076;-83
2024/01/04 09:58:52;;;;;;;22.50;11.27;;;8.80;99.90;;;8.85;88.95;99227.84;5034060;28;20062;-83
2024/01/04 10:01:22;;;;;;;16.48;9.38;;;8.90;99.90;;;8.81;88.71;99226.69;5049629;28;20068;-83
2024/01/04 10:03:53;;;;;;;14.88;9.20;;;8.90;99.90;;;8.83;88.70;99239.75;5033657;28;20115;-83
2024/01/04 10:06:30;;;;;;;18.00;8.38;;;8.90;99.90;;;8.82;88.88;99243.44;5044999;28;20045;-83
2024/01/04 10:09:08;;;;;;;17.08;8.77;;;8.90;99.90;;;8.84;89.25;99238.72;5045882;28;20049;-83
2024/01/04 10:11:44;;;;;;;15.18;7.75;;;8.90;99.90;;;8.79;88.98;99246.56;5045978;28;20049;-83
2024/01/04 10:14:12;;;;;;;14.35;8.52;;;8.90;99.90;;;8.82;88.80;99246.09;5012726;28;20073;-83
2024/01/04 10:16:41;;;;;;;14.13;8.00;;;8.90;99.90;;;8.67;88.40;99247.34;5040476;28;20124;-83
2024/01/04 10:19:12;;;;;;;13.60;6.43;;;8.80;99.90;;;8.68;88.50;99251.63;5045927;28;20049;-83
2024/01/04 10:21:42;;;;;;;11.68;6.30;;;8.80;99.90;;;8.75;88.58;99260.31;5045686;28;20042;-83
2024/01/04 10:24:13;;;;;;;10.35;5.97;;;8.80;99.90;;;8.77;88.36;99268.06;5044894;28;20048;-83
2024/01/04 10:26:42;;;;;;;14.07;6.65;;;8.80;99.90;;;8.81;88.18;99263.09;5044267;28;20049;-82
2024/01/04 10:29:10;;;;;;;10.52;5.88;;;8.80;99.90;;;8.76;87.90;99261.13;5060846;28;20580;-83
2024/01/04 10:31:37;;;;;;;10.43;6.03;;;8.80;99.90;;;8.72;88.27;99266.06;5044928;28;20045;-83
2024/01/04 10:34:05;;;;;;;14.32;7.00;;;8.80;99.90;;;8.76;88.28;99269.91;5039571;28;20079;-83
2024/01/04 10:36:38;;;;;;;11.65;5.80;;;8.80;99.90;;;8.76;88.29;99272.56;5043171;28;20049;-83
2024/01/04 10:39:10;;;;;;;11.80;5.70;;;8.80;99.90;;;8.82;88.18;99268.16;5059857;28;20056;-83